Flight Track Log - Related Links

Times and Time Zones

All times are in EDT time to prevent confusion due to time zone crossing. See the UAL4236 flight status page for this flight to view local times or setup timezone preferences in your user account.

Time Position Orientation Groundspeed Altitude Reporting Facility
EDT Latitude Longitude Course Direction KTS MPH feet Rate Location/Type
Tue 07:42:16 AM 33.5553 -86.7708 231° Southwest 167 192 1,100  Level Atlanta Center
Tue 07:42:53 AM 33.5400 -86.8003 238° Southwest 169 194 2,500 1,703 Climbing Atlanta Center
Tue 07:43:30 AM 33.5289 -86.8347 249° West 219 252 3,200 1,732 Climbing Atlanta Center
Tue 07:44:30 AM 33.4900 -86.8908 230° Southwest 226 260 5,300 2,050 Climbing Atlanta Center
Tue 07:45:00 AM 33.3727 -87.0150 230° Southwest  Level FlightAware Approximate
Tue 07:45:30 AM 33.4447 -86.9542 229° Southwest 243 280 7,300  Level Atlanta Center
Tue 07:46:00 AM 33.3111 -87.1012 229° Southwest  Level FlightAware Approximate
Tue 07:46:30 AM 33.3969 -87.0247 231° Southwest 259 298 9,400  Level Atlanta Center
Tue 07:47:00 AM 33.2515 -87.1895 231° Southwest  Level FlightAware Approximate
Tue 07:47:30 AM 33.3472 -87.0925 229° Southwest 270 311 11,600  Level Atlanta Center
Tue 07:48:30 AM 33.3019 -87.1581 230° Southwest 270 311 14,200 2,400 Climbing Atlanta Center
Tue 07:49:30 AM 33.2564 -87.2236 230° Southwest 270 311 16,400 1,950 Climbing Atlanta Center
Tue 07:50:30 AM 33.2131 -87.2839 229° Southwest 260 299 18,100 1,700 Climbing Atlanta Center
Tue 07:51:30 AM 33.1675 -87.3467 229° Southwest 255 293 19,800 1,850 Climbing Atlanta Center
Tue 07:52:30 AM 33.1219 -87.4119 230° Southwest 255 293 21,800 1,850 Climbing Atlanta Center
Tue 07:53:30 AM 33.0742 -87.4794 230° Southwest 255 293 23,500 1,376 Climbing Atlanta Center
Tue 07:55:20 AM 33.0056 -87.6447 244° Southwest 283 326 25,700 882 Climbing Memphis Center
Tue 07:56:20 AM 32.9722 -87.7425 248° West 308 354 26,000 150 Climbing Memphis Center
Tue 07:57:20 AM 32.9386 -87.8422 248° West 331 381 26,000  Level Memphis Center
Tue 07:58:20 AM 32.9014 -87.9672 251° West 377 434 26,000  Level Memphis Center
Tue 07:59:20 AM 32.8558 -88.0944 247° West 403 464 26,000  Level Memphis Center
Tue 08:00:20 AM 32.8142 -88.2217 249° West 416 479 26,000  Level Memphis Center
Tue 08:01:20 AM 32.7667 -88.3661 249° West 421 484 26,000  Level Memphis Center
Tue 08:02:20 AM 32.7186 -88.5006 247° West 432 497 26,000  Level Memphis Center
Tue 08:03:20 AM 32.6725 -88.6297 247° West 437 503 26,000  Level Memphis Center
Tue 08:04:20 AM 32.6261 -88.7639 248° West 437 503 26,000  Level Memphis Center
Tue 08:05:20 AM 32.5692 -88.8881 241° Southwest 437 503 26,000  Level Memphis Center
Tue 08:06:20 AM 32.4911 -88.9953 229° Southwest 437 503 26,000  Level Memphis Center
Tue 08:07:20 AM 32.4067 -89.1047 228° Southwest 443 510 26,000  Level Memphis Center
Tue 08:08:20 AM 32.3242 -89.2092 227° Southwest 443 510 26,000  Level Memphis Center
Tue 08:09:20 AM 32.2394 -89.3133 226° Southwest 443 510 26,000  Level Memphis Center
Tue 08:10:20 AM 32.1547 -89.4175 226° Southwest 443 510 26,000  Level Memphis Center
Tue 08:12:24 AM 32.0247 -89.6386 235° Southwest 440 506 26,000  Level Houston Center
Tue 08:13:26 AM 31.9847 -89.8028 254° West 438 504 26,000 -49 Level Houston Center
Tue 08:14:27 AM 31.9475 -89.9236 250° West 427 491 25,900 -49 Descending Houston Center
Tue 08:15:29 AM 31.8953 -90.0467 243° Southwest 422 486 25,900 49 Level Houston Center
Tue 08:16:30 AM 31.8528 -90.1719 248° West 415 478 26,000 49 Climbing Houston Center
Tue 08:17:31 AM 31.8219 -90.3017 254° West 412 474 26,000 -49 Level Houston Center
Tue 08:18:33 AM 31.7839 -90.4550 254° West 408 470 25,900  Descending Houston Center
Tue 08:19:34 AM 31.7553 -90.5708 254° West 376 433 26,000 49 Climbing Houston Center
Tue 08:20:36 AM 31.7239 -90.6972 254° West 400 460 26,000  Level Houston Center
Tue 08:21:37 AM 31.6914 -90.8275 254° West 414 476 26,000  Level Houston Center
Tue 08:22:39 AM 31.6578 -90.9619 254° West 428 493 26,000  Level Houston Center
Tue 08:23:40 AM 31.6239 -91.0972 254° West 433 498 26,000  Level Houston Center
Tue 08:24:42 AM 31.5822 -91.2572 253° West 434 499 26,000  Level Houston Center
Tue 08:25:43 AM 31.5478 -91.3936 254° West 437 503 26,000  Level Houston Center
Tue 08:26:45 AM 31.5136 -91.5300 254° West 437 503 26,000  Level Houston Center
Tue 08:27:46 AM 31.4783 -91.6658 253° West 437 503 26,000  Level Houston Center
Tue 08:28:48 AM 31.4414 -91.8017 252° West 437 503 26,000  Level Houston Center
Tue 08:29:50 AM 31.4053 -91.9372 253° West 437 503 26,000  Level Houston Center
Tue 08:30:51 AM 31.3689 -92.0736 253° West 439 505 26,000  Level Houston Center
Tue 08:31:53 AM 31.3322 -92.2117 253° West 442 509 26,000  Level Houston Center
Tue 08:32:54 AM 31.2894 -92.3731 253° West 439 505 26,000  Level Houston Center
Tue 08:33:56 AM 31.2519 -92.5072 252° West 436 502 26,000  Level Houston Center
Tue 08:34:58 AM 31.1864 -92.6278 238° Southwest 442 509 26,000  Level Houston Center
Tue 08:35:59 AM 31.1194 -92.7461 237° Southwest 436 502 26,000  Level Houston Center
Tue 08:37:01 AM 31.0533 -92.8642 237° Southwest 436 502 26,000  Level Houston Center
Tue 08:38:03 AM 30.9867 -92.9833 237° Southwest 440 506 26,000  Level Houston Center
Tue 08:39:04 AM 30.9197 -93.1011 236° Southwest 439 505 26,000 -49 Level Houston Center
Tue 08:40:06 AM 30.8844 -93.2600 256° West 447 514 25,900  Descending Houston Center
Tue 08:41:08 AM 30.9283 -93.3911 291° West 442 509 26,000 48 Climbing Houston Center
Tue 08:42:10 AM 30.9844 -93.5206 297° West 450 518 26,000  Level Houston Center
Tue 08:43:11 AM 31.0411 -93.6478 297° West 447 514 26,000  Level Houston Center
Tue 08:44:13 AM 31.0986 -93.7772 297° West 450 518 26,000 -677 Level Houston Center
Tue 08:45:15 AM 31.1456 -93.9125 292° West 425 489 24,600 -968 Descending Houston Center
Tue 08:46:17 AM 31.1003 -94.0125 242° Southwest 359 413 24,000 -484 Descending Houston Center
Tue 08:47:19 AM 31.0142 -94.0517 201° Southwest 334 384 23,600 -1,220 Descending Houston Center
Tue 08:48:20 AM 30.9128 -94.0914 199° South 344 396 21,500 -1,268 Descending Houston Center
Tue 08:49:22 AM 30.8289 -94.1236 198° South 323 372 21,000 -242 Descending Houston Center
Tue 08:50:24 AM 30.7456 -94.1550 198° South 317 365 21,000  Level Houston Center
Tue 08:51:26 AM 30.6550 -94.1592 182° South 327 376 21,000 -194 Level Houston Center
Tue 08:52:28 AM 30.5394 -94.1544 178° South 352 405 20,600 -1,625 Descending Houston Center
Tue 08:53:02 AM 30.4894 -94.1856 208° Southwest 352 405 18,400 -4,031 Descending Houston Center
Tue 08:53:32 AM 30.4461 -94.2131 209° Southwest 356 410 16,300 -3,169 Descending Houston Center
Tue 08:54:31 AM 30.3672 -94.2611 208° Southwest 353 406 13,700 -2,083 Descending Houston Center
Tue 08:55:33 AM 30.2872 -94.3094 208° Southwest 330 380 12,100 -823 Descending Houston Center
Tue 08:56:35 AM 30.2119 -94.3606 210° Southwest 319 367 12,000 -194 Descending Houston Center
Tue 08:57:37 AM 30.1822 -94.4544 250° West 318 366 11,700 -780 Descending Houston Center
Tue 08:58:38 AM 30.1644 -94.5622 259° West 326 375 10,400 -829 Descending Houston Center
Tue 08:59:40 AM 30.1481 -94.6586 259° West 311 358 10,000 -969 Descending Houston Center
Tue 09:00:48 AM 30.1283 -94.7678 258° West 258 297 8,300 -1,561 Descending Houston Center
Tue 09:01:43 AM 30.1161 -94.8392 259° West 244 281 6,800 -1,190 Descending Houston Center
Tue 09:02:44 AM 30.1044 -94.9156 260° West 234 269 6,000 -387 Descending Houston Center
Tue 09:03:47 AM 30.1058 -94.9903 271° West 246 283 6,000  Level Houston Center
Tue 09:04:46 AM 30.1061 -95.0869 270° West 266 306 6,000  Level Houston Center
Tue 09:05:51 AM 30.1069 -95.1519 271° West 251 289 6,000  Level Houston Center
Tue 09:06:49 AM 30.1056 -95.2417 269° West 257 296 6,000  Level Houston Center
Tue 09:07:54 AM 30.1081 -95.3228 272° West 244 281 6,000 -344 Level Houston Center
Tue 09:08:51 AM 30.1069 -95.3936 269° West 212 244 5,300 -968 Descending Houston Center
Tue 09:09:58 AM 30.1072 -95.4661 270° West 212 244 4,000 -1,078 Descending Houston Center
Tue 09:10:59 AM 30.1086 -95.5303 271° West 217 250 3,000 -492 Descending Houston Center
Tue 09:12:00 AM 30.0972 -95.6122 261° West 217 250 3,000  Level Houston Center
Tue 09:12:55 AM 30.0886 -95.6783 261° West 223 257 3,000  Level Houston Center
Tue 09:13:56 AM 30.0472 -95.7097 213° Southwest 186 214 3,000  Level Houston Center
Tue 09:15:03 AM 30.0067 -95.6783 146° Southeast 215 247 3,000  Level Houston Center
Tue 09:16:04 AM 30.0067 -95.6083 90° East 209 241 3,000 52 Level Houston Center
Tue 09:16:59 AM 30.0058 -95.5531 91° East 194 223 3,100 109 Climbing Houston Center

Login

Don't have an account? Register now (free) for customized features, flight alerts, and more!